createdAt,value
2023-02-22T00:02:32.565Z,60.61
2023-02-22T00:05:02.869Z,60.70
2023-02-22T00:07:33.768Z,60.50
2023-02-22T00:10:03.646Z,60.58
2023-02-22T00:12:33.469Z,60.91
2023-02-22T00:15:03.333Z,60.98
2023-02-22T00:17:36.767Z,60.99
2023-02-22T00:20:10.003Z,60.91
2023-02-22T00:22:40.283Z,61.18
2023-02-22T00:25:10.941Z,60.94
2023-02-22T00:27:41.193Z,60.87
2023-02-22T00:30:19.196Z,60.91
2023-02-22T00:32:53.963Z,61.04
2023-02-22T00:35:26.162Z,61.17
2023-02-22T00:37:58.875Z,61.62
2023-02-22T00:40:31.374Z,61.43
2023-02-22T00:43:02.393Z,61.78
2023-02-22T00:45:35.102Z,62.83
2023-02-22T00:48:10.281Z,62.43
2023-02-22T00:50:40.697Z,62.04
2023-02-22T00:53:12.011Z,61.72
2023-02-22T00:55:42.339Z,62.44
2023-02-22T00:58:12.900Z,62.18
2023-02-22T01:00:45.290Z,63.09
2023-02-22T01:03:22.265Z,62.82
2023-02-22T01:05:52.961Z,62.84
2023-02-22T01:08:25.190Z,62.35
2023-02-22T01:10:56.506Z,62.15
2023-02-22T01:13:26.994Z,63.00
2023-02-22T01:15:56.860Z,62.65
2023-02-22T01:18:29.787Z,62.41
2023-02-22T01:21:01.032Z,62.37
2023-02-22T01:23:30.975Z,62.71
2023-02-22T01:26:01.317Z,62.88
2023-02-22T01:28:32.896Z,62.93
2023-02-22T01:31:03.278Z,62.77
2023-02-22T01:33:36.692Z,62.97
2023-02-22T01:36:11.343Z,63.31
2023-02-22T01:38:41.283Z,63.27
2023-02-22T01:41:11.208Z,63.49
2023-02-22T01:43:41.448Z,63.51
2023-02-22T01:46:29.846Z,63.53
2023-02-22T01:49:10.372Z,63.47
2023-02-22T01:51:46.568Z,64.14
2023-02-22T01:54:20.788Z,64.02
2023-02-22T01:56:57.080Z,63.86
2023-02-22T01:59:27.216Z,63.72
2023-02-22T02:01:57.033Z,64.04
2023-02-22T02:04:31.346Z,63.99
2023-02-22T02:07:06.063Z,63.49
2023-02-22T02:09:42.582Z,64.11
2023-02-22T02:12:16.607Z,64.28
2023-02-22T02:14:46.994Z,64.59
2023-02-22T02:17:20.566Z,64.38
2023-02-22T02:20:11.454Z,64.69
2023-02-22T02:22:55.286Z,64.30
2023-02-22T02:25:54.983Z,64.44
2023-02-22T02:28:54.900Z,64.92
2023-02-22T02:31:46.706Z,64.88
2023-02-22T02:34:26.802Z,64.55
2023-02-22T02:37:07.654Z,65.01
2023-02-22T02:39:46.914Z,64.56
2023-02-22T02:42:24.952Z,65.51
2023-02-22T02:45:03.117Z,65.94
2023-02-22T02:47:37.936Z,66.07
2023-02-22T02:50:16.690Z,65.83
2023-02-22T02:52:49.235Z,65.48
2023-02-22T02:55:21.840Z,65.39
2023-02-22T02:57:51.944Z,65.21
2023-02-22T03:00:39.567Z,65.21
2023-02-22T03:03:26.559Z,65.40
2023-02-22T03:06:29.768Z,66.35
2023-02-22T03:09:09.642Z,65.56
2023-02-22T03:11:51.865Z,65.86
2023-02-22T03:14:38.004Z,66.78
2023-02-22T03:17:19.286Z,66.17
2023-02-22T03:19:58.182Z,66.11
2023-02-22T03:22:44.234Z,66.52
2023-02-22T03:25:19.939Z,66.08
2023-02-22T03:27:53.806Z,66.48
2023-02-22T03:30:30.472Z,66.70
2023-02-22T03:33:09.172Z,66.25
2023-02-22T03:35:45.965Z,65.97
2023-02-22T03:38:23.796Z,66.37
2023-02-22T03:40:59.355Z,66.10
2023-02-22T03:43:37.328Z,66.51
2023-02-22T03:46:12.335Z,65.94
2023-02-22T03:48:54.301Z,65.82
2023-02-22T03:51:26.562Z,66.12
2023-02-22T03:54:04.375Z,65.71
2023-02-22T03:56:50.084Z,66.18
2023-02-22T03:59:26.153Z,66.48
2023-02-22T04:01:56.928Z,66.00
2023-02-22T04:04:28.184Z,66.30
2023-02-22T04:06:58.621Z,66.58
2023-02-22T04:09:32.794Z,66.68
2023-02-22T04:12:02.760Z,66.70
2023-02-22T04:14:35.545Z,66.91
2023-02-22T04:17:05.615Z,66.96
2023-02-22T04:19:35.456Z,66.80
2023-02-22T04:22:05.330Z,67.29
2023-02-22T04:24:40.238Z,67.21
2023-02-22T04:27:10.037Z,68.33
2023-02-22T04:29:40.954Z,67.54
2023-02-22T04:32:11.140Z,67.31
2023-02-22T04:34:41.311Z,67.44
2023-02-22T04:37:11.166Z,67.62
2023-02-22T04:39:43.771Z,67.91
2023-02-22T04:42:14.136Z,68.16
2023-02-22T04:44:44.690Z,67.79
2023-02-22T04:47:14.954Z,67.75
2023-02-22T04:49:45.673Z,67.56
2023-02-22T04:52:16.026Z,67.38
2023-02-22T04:54:49.015Z,67.41
2023-02-22T04:57:19.070Z,68.15
2023-02-22T04:59:48.965Z,67.80
2023-02-22T05:02:20.367Z,68.13
2023-02-22T05:04:50.658Z,67.47
2023-02-22T05:07:20.939Z,67.92
2023-02-22T05:09:53.462Z,67.70
2023-02-22T05:12:23.336Z,68.08
2023-02-22T05:14:53.185Z,68.31
2023-02-22T05:17:23.010Z,68.55
2023-02-22T05:19:52.838Z,68.88
2023-02-22T05:22:22.723Z,69.28
2023-02-22T05:24:56.838Z,68.88
2023-02-22T05:27:26.702Z,68.48
2023-02-22T05:29:56.562Z,68.17
2023-02-22T05:32:27.565Z,68.45
2023-02-22T05:34:57.511Z,68.77
2023-02-22T05:37:27.599Z,68.62
2023-02-22T05:40:00.060Z,68.29
2023-02-22T05:42:29.969Z,68.19
2023-02-22T05:45:00.248Z,68.29
2023-02-22T05:47:30.264Z,68.10
2023-02-22T05:50:00.136Z,68.30
2023-02-22T05:52:30.177Z,68.22
2023-02-22T05:55:02.640Z,68.04
2023-02-22T05:57:32.585Z,68.18
2023-02-22T06:00:02.769Z,68.81
2023-02-22T06:02:42.752Z,68.30
2023-02-22T06:05:12.688Z,67.95
2023-02-22T06:07:42.516Z,67.78
2023-02-22T06:10:14.991Z,68.36
2023-02-22T06:12:45.003Z,67.82
2023-02-22T06:15:14.991Z,67.88
2023-02-22T06:17:45.220Z,68.22
2023-02-22T06:20:17.328Z,67.80
2023-02-22T06:22:49.342Z,67.84
2023-02-22T06:25:24.085Z,67.97
2023-02-22T06:27:54.323Z,67.85
2023-02-22T06:30:26.463Z,68.32
2023-02-22T06:32:57.044Z,68.35
2023-02-22T06:35:27.016Z,68.19
2023-02-22T06:37:56.872Z,67.84
2023-02-22T06:40:30.363Z,68.51
2023-02-22T06:43:01.446Z,69.78
2023-02-22T06:45:31.405Z,69.19
2023-02-22T06:48:01.289Z,68.98
2023-02-22T06:50:35.926Z,68.16
2023-02-22T06:53:09.643Z,67.75
2023-02-22T06:55:46.112Z,67.91
2023-02-22T06:58:37.254Z,67.89
2023-02-22T07:01:47.613Z,67.70
2023-02-22T07:04:42.881Z,68.22
2023-02-22T07:14:40.850Z,68.80
2023-02-22T07:23:37.747Z,68.94
2023-02-22T07:30:55.498Z,68.12
2023-02-22T07:34:16.758Z,67.82
2023-02-22T08:05:47.585Z,66.22
2023-02-22T08:11:41.811Z,65.22
2023-02-22T08:22:27.843Z,65.11
2023-02-22T08:40:20.107Z,65.00
2023-02-22T08:45:42.608Z,64.94
2023-02-22T08:46:20.042Z,64.94
2023-02-22T08:47:57.335Z,65.47
2023-02-22T08:50:53.028Z,65.23
2023-02-22T08:54:06.348Z,64.96
2023-02-22T08:57:15.919Z,64.72
2023-02-22T09:00:17.570Z,63.85
2023-02-22T09:06:55.999Z,64.05
2023-02-22T09:09:44.920Z,62.76
2023-02-22T09:12:34.291Z,63.23
2023-02-22T09:15:28.268Z,63.26
2023-02-22T09:18:42.391Z,62.38
2023-02-22T09:22:34.574Z,62.64
2023-02-22T09:25:34.513Z,62.83
2023-02-22T09:28:54.042Z,63.02
2023-02-22T09:32:27.256Z,62.88
2023-02-22T09:35:19.975Z,62.64
2023-02-22T09:38:35.314Z,62.19
2023-02-22T09:41:56.427Z,61.37
2023-02-22T09:49:09.729Z,61.42
2023-02-22T09:52:35.446Z,61.00
2023-02-22T09:59:50.005Z,59.65
2023-02-22T10:35:41.286Z,55.35
2023-02-22T11:07:11.942Z,51.21
2023-02-22T11:09:53.828Z,50.71
2023-02-22T11:12:30.064Z,49.09
2023-02-22T11:15:00.522Z,48.44
2023-02-22T11:17:35.344Z,47.74
2023-02-22T11:20:05.775Z,47.49
2023-02-22T11:22:43.840Z,47.30
2023-02-22T11:25:25.289Z,46.78
2023-02-22T11:27:59.990Z,45.07
2023-02-22T11:30:35.622Z,44.41
2023-02-22T11:33:24.285Z,42.86
2023-02-22T11:35:56.604Z,40.83
2023-02-22T11:38:31.138Z,39.13
2023-02-22T11:41:14.803Z,38.75
2023-02-22T11:43:45.432Z,38.82
2023-02-22T11:46:20.647Z,38.83
2023-02-22T11:49:02.200Z,36.60
2023-02-22T11:51:48.056Z,35.41
2023-02-22T11:54:47.213Z,35.83
2023-02-22T11:57:29.065Z,36.03
2023-02-22T12:00:16.288Z,36.64
2023-02-22T12:03:07.327Z,36.62
2023-02-22T12:06:02.257Z,35.99
2023-02-22T12:08:43.917Z,35.61
2023-02-22T12:11:25.003Z,34.58
2023-02-22T12:14:12.397Z,33.54
2023-02-22T12:17:03.824Z,32.45
2023-02-22T12:19:39.156Z,32.76
2023-02-22T12:22:15.848Z,32.39
2023-02-22T12:25:03.954Z,32.32
2023-02-22T12:28:26.182Z,30.73
2023-02-22T12:31:07.914Z,30.63
2023-02-22T12:33:49.535Z,29.79
2023-02-22T12:36:27.676Z,28.95
2023-02-22T12:39:07.392Z,30.15
2023-02-22T12:41:47.178Z,30.84
2023-02-22T12:44:27.680Z,30.50
2023-02-22T12:47:05.540Z,30.60
2023-02-22T12:49:46.214Z,31.97
2023-02-22T12:52:29.210Z,31.46
2023-02-22T12:55:11.042Z,30.63
2023-02-22T12:57:47.098Z,30.22
2023-02-22T13:00:28.756Z,31.50
2023-02-22T13:03:04.066Z,33.12
2023-02-22T13:05:41.130Z,32.89
2023-02-22T13:08:30.235Z,32.33
2023-02-22T13:11:15.011Z,33.30
2023-02-22T13:13:59.423Z,35.06
2023-02-22T13:16:45.903Z,35.23
2023-02-22T13:19:33.575Z,36.33
2023-02-22T13:22:13.259Z,36.12
2023-02-22T13:25:05.186Z,35.57
2023-02-22T13:27:43.514Z,36.60
2023-02-22T13:30:23.341Z,35.71
2023-02-22T13:33:28.424Z,36.75
2023-02-22T13:36:29.808Z,37.17
2023-02-22T13:39:46.484Z,35.86
2023-02-22T13:42:43.007Z,35.75
2023-02-22T13:46:09.901Z,36.86
2023-02-22T13:49:13.081Z,37.49
2023-02-22T13:51:51.027Z,38.69
2023-02-22T13:54:30.470Z,40.06
2023-02-22T13:57:10.548Z,41.02
2023-02-22T13:59:47.949Z,41.12
2023-02-22T14:02:49.336Z,40.45
2023-02-22T14:05:50.460Z,40.35
2023-02-22T14:08:48.153Z,41.26
2023-02-22T14:11:54.345Z,43.24
2023-02-22T14:14:24.833Z,43.10
2023-02-22T14:17:28.947Z,43.10
2023-02-22T14:20:14.850Z,42.02
2023-02-22T14:22:48.401Z,43.98
2023-02-22T14:25:40.712Z,44.00
2023-02-22T14:28:33.047Z,43.68
2023-02-22T14:31:25.558Z,43.94
2023-02-22T14:34:12.114Z,43.82
2023-02-22T14:36:54.611Z,43.80
2023-02-22T14:39:34.481Z,43.50
2023-02-22T14:42:12.551Z,44.29
2023-02-22T14:44:54.157Z,44.81
2023-02-22T14:47:31.184Z,44.34
2023-02-22T14:50:15.054Z,45.32
2023-02-22T14:52:49.076Z,45.33
2023-02-22T14:55:29.143Z,45.55
2023-02-22T14:58:08.695Z,46.23
2023-02-22T15:00:45.913Z,46.15
2023-02-22T15:03:37.637Z,46.22
2023-02-22T15:06:10.138Z,46.25
2023-02-22T15:08:41.785Z,46.28
2023-02-22T15:11:23.604Z,45.96
2023-02-22T15:13:55.501Z,46.35
2023-02-22T15:16:32.162Z,46.44
2023-02-22T15:19:07.766Z,45.69
2023-02-22T15:21:39.308Z,46.05
2023-02-22T15:24:12.316Z,46.30
2023-02-22T15:27:00.158Z,45.85
2023-02-22T15:29:39.067Z,46.60
2023-02-22T15:32:22.261Z,46.88
2023-02-22T15:34:52.315Z,47.36
2023-02-22T15:37:25.839Z,47.65
2023-02-22T15:39:59.608Z,47.73
2023-02-22T15:42:32.250Z,47.15
2023-02-22T15:45:02.316Z,48.02
2023-02-22T15:47:34.737Z,47.68
2023-02-22T15:50:21.433Z,48.03
2023-02-22T15:52:58.226Z,48.43
2023-02-22T15:55:34.318Z,48.65
2023-02-22T15:58:14.488Z,48.49
2023-02-22T16:00:47.271Z,49.13
2023-02-22T16:03:23.047Z,49.25
2023-02-22T16:05:58.037Z,49.25
2023-02-22T16:08:45.805Z,49.30
2023-02-22T16:11:30.142Z,49.53
2023-02-22T16:14:05.304Z,49.69
2023-02-22T16:16:41.772Z,50.14
2023-02-22T16:19:33.016Z,50.63
2023-02-22T16:22:06.452Z,50.36
2023-02-22T16:24:38.842Z,51.10
2023-02-22T16:27:20.073Z,51.08
2023-02-22T16:30:23.192Z,51.12
2023-02-22T16:32:56.234Z,51.31
2023-02-22T16:35:29.792Z,51.50
2023-02-22T16:38:03.043Z,52.11
2023-02-22T16:40:36.935Z,52.29
2023-02-22T16:43:10.642Z,52.90
2023-02-22T16:45:43.325Z,53.21
2023-02-22T16:48:20.077Z,52.91
2023-02-22T16:50:51.513Z,53.73
2023-02-22T16:53:24.749Z,53.64
2023-02-22T16:56:00.683Z,53.76
2023-02-22T16:58:36.771Z,54.41
2023-02-22T17:01:09.984Z,54.99
2023-02-22T17:03:39.899Z,55.12
2023-02-22T17:06:11.604Z,56.07
2023-02-22T17:08:42.844Z,55.93
2023-02-22T17:11:17.217Z,56.21
2023-02-22T17:13:51.715Z,55.79
2023-02-22T17:16:24.190Z,56.37
2023-02-22T17:18:54.107Z,56.80
2023-02-22T17:21:23.948Z,57.91
2023-02-22T17:23:53.790Z,58.55
2023-02-22T17:26:26.294Z,58.64
2023-02-22T17:28:56.231Z,58.69
2023-02-22T17:31:33.008Z,59.02
2023-02-22T17:34:05.430Z,59.50
2023-02-22T17:36:37.534Z,59.76
2023-02-22T17:39:10.676Z,59.96
2023-02-22T17:41:41.285Z,60.24
2023-02-22T17:44:11.536Z,60.79
2023-02-22T17:46:43.984Z,60.62
2023-02-22T17:49:14.182Z,60.66
2023-02-22T17:51:49.463Z,60.72
2023-02-22T17:54:23.106Z,61.00
2023-02-22T17:56:52.967Z,60.91
2023-02-22T17:59:22.940Z,61.30
2023-02-22T18:01:57.630Z,61.20
2023-02-22T18:04:27.691Z,61.18
2023-02-22T18:06:57.537Z,61.19
2023-02-22T18:09:27.439Z,61.37
2023-02-22T18:11:58.475Z,61.33
2023-02-22T18:14:29.710Z,61.61
2023-02-22T18:17:02.249Z,61.76
2023-02-22T18:19:32.143Z,61.97
2023-02-22T18:22:03.058Z,62.00
2023-02-22T18:24:35.854Z,62.00
2023-02-22T18:27:08.354Z,62.73
2023-02-22T18:29:38.305Z,62.40
2023-02-22T18:32:13.408Z,62.78
2023-02-22T18:34:43.568Z,62.66
2023-02-22T18:37:13.485Z,62.63
2023-02-22T18:39:43.677Z,62.86
2023-02-22T18:42:15.473Z,62.79
2023-02-22T18:44:47.690Z,62.51
2023-02-22T18:47:20.510Z,62.99
2023-02-22T18:49:50.806Z,63.11
2023-02-22T18:52:21.211Z,63.05
2023-02-22T18:54:52.507Z,62.76
2023-02-22T18:57:23.031Z,62.58
2023-02-22T18:59:55.034Z,62.81
2023-02-22T19:02:27.566Z,62.79
2023-02-22T19:04:57.717Z,62.98
2023-02-22T19:07:27.565Z,63.39
2023-02-22T19:09:57.410Z,63.43
2023-02-22T19:12:27.658Z,63.10
2023-02-22T19:14:58.186Z,63.53
2023-02-22T19:17:35.033Z,63.43
2023-02-22T19:20:06.340Z,63.28
2023-02-22T19:25:26.592Z,64.16
2023-02-22T19:27:56.907Z,63.96
2023-02-22T19:30:28.187Z,63.64
2023-02-22T19:33:04.432Z,64.29
2023-02-22T19:35:34.422Z,64.30
2023-02-22T19:38:05.029Z,64.34
2023-02-22T19:40:34.988Z,64.41
2023-02-22T19:43:05.034Z,64.38
2023-02-22T19:45:35.148Z,64.44
2023-02-22T19:48:08.417Z,64.85
2023-02-22T19:50:48.362Z,64.45
2023-02-22T19:53:18.506Z,64.76
2023-02-22T19:55:48.500Z,65.12
2023-02-22T19:58:18.423Z,64.93
2023-02-22T20:00:48.288Z,64.24
2023-02-22T20:03:23.928Z,64.32
2023-02-22T20:05:55.011Z,64.88
2023-02-22T20:08:26.370Z,64.76
2023-02-22T20:11:01.068Z,64.58
2023-02-22T20:13:34.429Z,64.40
2023-02-22T20:16:04.378Z,64.24
2023-02-22T20:18:37.236Z,64.61
2023-02-22T20:21:11.104Z,64.84
2023-02-22T20:23:44.403Z,65.10
2023-02-22T20:26:19.305Z,65.24
2023-02-22T20:28:50.069Z,64.67
2023-02-22T20:31:21.117Z,64.64
2023-02-22T20:33:57.036Z,64.54
2023-02-22T20:36:28.325Z,64.76
2023-02-22T20:39:00.732Z,64.96
2023-02-22T20:41:32.907Z,64.08
2023-02-22T20:44:07.040Z,64.11
2023-02-22T20:46:38.503Z,64.30
2023-02-22T20:49:14.070Z,64.43
2023-02-22T20:51:44.835Z,64.06
2023-02-22T20:54:16.029Z,64.31
2023-02-22T20:56:48.929Z,64.40
2023-02-22T20:59:22.239Z,64.58
2023-02-22T21:01:53.332Z,65.25
2023-02-22T21:04:26.984Z,65.45
2023-02-22T21:06:57.053Z,65.67
2023-02-22T21:09:34.409Z,65.57
2023-02-22T21:12:10.513Z,65.35
2023-02-22T21:14:40.511Z,65.42
2023-02-22T21:17:10.612Z,65.35
2023-02-22T21:19:43.193Z,65.80
2023-02-22T21:22:15.645Z,65.82
2023-02-22T21:24:47.775Z,65.56
2023-02-22T21:27:18.110Z,66.29
2023-02-22T21:29:48.095Z,66.42
2023-02-22T21:32:18.199Z,66.53
2023-02-22T21:34:51.130Z,66.59
2023-02-22T21:37:21.923Z,66.99
2023-02-22T21:39:52.081Z,66.52
2023-02-22T21:42:21.978Z,67.65
2023-02-22T21:44:56.170Z,67.65
2023-02-22T21:47:27.735Z,67.44
2023-02-22T21:50:01.758Z,66.83
2023-02-22T21:52:31.934Z,66.65
2023-02-22T21:55:02.066Z,67.38
2023-02-22T21:57:32.727Z,68.87
2023-02-22T22:00:12.913Z,69.25
2023-02-22T22:02:46.277Z,68.57
2023-02-22T22:05:31.704Z,69.28
2023-02-22T22:08:01.845Z,69.54
2023-02-22T22:10:34.174Z,69.67
2023-02-22T22:13:06.193Z,70.20
2023-02-22T22:15:37.454Z,70.52
2023-02-22T22:18:08.296Z,70.68
2023-02-22T22:20:41.233Z,70.86
2023-02-22T22:23:11.171Z,71.10
2023-02-22T22:25:41.516Z,70.35
2023-02-22T22:28:15.245Z,70.99
2023-02-22T22:30:45.262Z,71.19
2023-02-22T22:33:15.387Z,71.16
2023-02-22T22:35:48.149Z,71.31
2023-02-22T22:38:18.510Z,71.75
2023-02-22T22:40:51.044Z,71.27
2023-02-22T22:43:20.933Z,72.05
2023-02-22T22:45:50.776Z,71.45
2023-02-22T22:48:22.751Z,71.63
2023-02-22T22:51:03.315Z,72.66
2023-02-22T22:53:34.069Z,72.21
2023-02-22T22:56:08.620Z,72.48
2023-02-22T22:58:39.275Z,72.26
2023-02-22T23:01:18.306Z,72.53
2023-02-22T23:03:55.322Z,72.59
2023-02-22T23:06:31.010Z,72.25
2023-02-22T23:09:10.295Z,72.52
2023-02-22T23:11:44.601Z,73.02
2023-02-22T23:14:15.958Z,73.27
2023-02-22T23:16:45.817Z,73.10
2023-02-22T23:19:15.815Z,72.98
2023-02-22T23:21:49.793Z,73.15
2023-02-22T23:24:22.100Z,73.09
2023-02-22T23:26:51.992Z,73.30
2023-02-22T23:29:23.931Z,73.30
2023-02-22T23:31:54.578Z,73.55
2023-02-22T23:34:25.913Z,74.02
2023-02-22T23:36:58.425Z,74.13
2023-02-22T23:39:28.421Z,74.63
2023-02-22T23:42:01.083Z,74.44
2023-02-22T23:44:31.333Z,74.96
2023-02-22T23:47:02.467Z,74.92
2023-02-22T23:49:37.975Z,75.32
2023-02-22T23:52:13.381Z,75.10
2023-02-22T23:54:44.120Z,75.09
2023-02-22T23:57:17.575Z,75.50
2023-02-22T23:59:47.438Z,75.75
